Time;durP1;ratioP1;P1;durP2;ratioP2;P2;SDS_P1;SDS_P2;PMS_P1;PMS_P2;Temp;Humidity;BMP_temperature;BMP_pressure;BME280_temperature;BME280_humidity;BME280_pressure;Samples;Min_cycle;Max_cycle;Signal;HPM_P1;HPM_P2
2021/09/01 00:00:39;;;;;;;18.25;5.53;;;16.70;99.90;;;;;;4972370;28;20034;-71
2021/09/01 00:03:04;;;;;;;11.77;5.45;;;16.70;99.90;;;;;;4971938;28;20034;-71
2021/09/01 00:05:30;;;;;;;23.33;6.63;;;16.80;99.90;;;;;;4972284;28;20015;-70
2021/09/01 00:07:55;;;;;;;18.88;6.65;;;16.80;99.90;;;;;;4971823;28;20031;-71
2021/09/01 00:10:21;;;;;;;19.88;5.60;;;16.80;99.80;;;;;;4971958;28;20053;-70
2021/09/01 00:12:47;;;;;;;23.33;6.38;;;16.80;99.80;;;;;;4971980;28;20027;-71
2021/09/01 00:15:13;;;;;;;21.48;6.88;;;16.80;99.70;;;;;;4971909;28;20093;-71
2021/09/01 00:17:39;;;;;;;27.65;7.97;;;16.80;99.90;;;;;;4972088;28;20023;-71
2021/09/01 00:20:07;;;;;;;28.30;7.32;;;16.70;99.80;;;;;;4971575;28;20059;-71
2021/09/01 00:22:34;;;;;;;24.60;6.20;;;16.70;99.90;;;;;;4971741;28;20030;-71
2021/09/01 00:25:00;;;;;;;19.80;6.43;;;16.80;99.90;;;;;;4971994;28;20125;-71
2021/09/01 00:27:25;;;;;;;30.45;6.53;;;16.70;99.90;;;;;;4971640;28;20114;-71
2021/09/01 00:29:51;;;;;;;22.33;6.10;;;16.60;99.90;;;;;;4972052;28;20037;-71
2021/09/01 00:32:17;;;;;;;23.30;6.05;;;16.60;99.90;;;;;;4971735;28;20114;-70
2021/09/01 00:34:42;;;;;;;21.13;6.20;;;16.60;99.90;;;;;;4971636;28;20035;-70
2021/09/01 00:37:08;;;;;;;19.73;7.07;;;16.60;99.90;;;;;;4971786;28;20053;-71
2021/09/01 00:39:33;;;;;;;22.25;7.10;;;16.60;99.90;;;;;;4971683;28;20046;-71
2021/09/01 00:42:09;;;;;;;26.38;7.10;;;16.70;99.90;;;;;;4971625;28;20380;-72
2021/09/01 00:44:35;;;;;;;23.20;6.85;;;16.70;99.90;;;;;;4971996;28;20084;-72
2021/09/01 00:47:03;;;;;;;32.67;7.22;;;16.70;99.90;;;;;;4970643;28;20038;-71
2021/09/01 00:49:29;;;;;;;18.98;7.20;;;16.80;99.90;;;;;;4971669;28;20113;-71
2021/09/01 00:51:56;;;;;;;27.27;7.25;;;16.80;99.90;;;;;;4971624;28;20379;-71
2021/09/01 00:54:23;;;;;;;23.02;7.03;;;16.80;99.90;;;;;;4971517;28;20039;-71
2021/09/01 00:56:53;;;;;;;24.80;7.47;;;16.80;99.90;;;;;;4971912;28;20033;-71
2021/09/01 00:59:23;;;;;;;28.50;7.53;;;16.80;99.90;;;;;;4971298;28;20035;-71
2021/09/01 01:01:50;;;;;;;21.83;6.95;;;16.70;99.90;;;;;;4971386;28;20397;-71
2021/09/01 01:04:15;;;;;;;19.08;7.18;;;16.80;99.90;;;;;;4971476;28;20109;-70
2021/09/01 01:06:41;;;;;;;19.90;6.78;;;16.80;99.90;;;;;;4971369;28;20174;-70
2021/09/01 01:09:08;;;;;;;21.98;7.20;;;16.70;99.90;;;;;;4973607;28;20027;-70
2021/09/01 01:11:34;;;;;;;26.80;7.10;;;16.80;99.90;;;;;;4974234;28;20027;-70
2021/09/01 01:14:00;;;;;;;23.50;6.68;;;16.80;99.90;;;;;;4974869;28;20034;-70
2021/09/01 01:16:26;;;;;;;24.77;7.68;;;16.80;99.90;;;;;;4974767;28;20038;-69
2021/09/01 01:18:55;;;;;;;19.92;6.20;;;16.70;99.90;;;;;;4973840;28;20034;-71
2021/09/01 01:21:28;;;;;;;22.27;7.10;;;16.90;99.90;;;;;;4974450;28;20461;-71
2021/09/01 01:23:59;;;;;;;21.23;7.20;;;16.90;99.80;;;;;;4975200;28;20055;-72
2021/09/01 01:26:25;;;;;;;19.15;5.60;;;16.90;99.80;;;;;;4974555;28;20101;-71
2021/09/01 01:28:53;;;;;;;19.58;6.60;;;16.80;99.90;;;;;;4974269;28;20050;-71
2021/09/01 01:31:20;;;;;;;18.63;6.05;;;16.80;99.90;;;;;;4974653;28;20538;-72
2021/09/01 01:33:45;;;;;;;22.02;6.55;;;16.80;99.80;;;;;;4974533;28;20027;-71
2021/09/01 01:36:11;;;;;;;34.00;8.50;;;16.60;99.90;;;;;;4985408;28;20380;-71
2021/09/01 01:38:36;;;;;;;27.83;7.63;;;16.80;99.90;;;;;;4994228;28;20448;-71
2021/09/01 01:41:02;;;;;;;17.48;7.22;;;16.60;99.90;;;;;;4993926;28;20037;-71
2021/09/01 01:43:31;;;;;;;30.63;8.18;;;16.80;99.90;;;;;;4993632;28;20040;-71
2021/09/01 01:45:56;;;;;;;24.40;7.32;;;16.80;99.70;;;;;;4993928;28;20035;-71
2021/09/01 01:48:22;;;;;;;32.58;6.93;;;16.70;99.70;;;;;;4993503;28;20107;-71
2021/09/01 01:50:48;;;;;;;18.83;6.53;;;16.80;99.70;;;;;;4994001;28;20045;-71
2021/09/01 01:53:14;;;;;;;23.80;6.93;;;16.70;99.60;;;;;;4993621;28;20066;-71
2021/09/01 01:55:40;;;;;;;22.75;6.55;;;16.70;99.60;;;;;;4993722;28;20038;-71
2021/09/01 01:58:05;;;;;;;18.02;5.85;;;16.80;99.60;;;;;;4993523;28;20038;-71
2021/09/01 02:00:33;;;;;;;29.52;6.70;;;16.80;99.60;;;;;;4993798;28;20046;-71
2021/09/01 02:02:58;;;;;;;28.50;7.18;;;16.70;99.50;;;;;;4993499;28;20650;-71
2021/09/01 02:05:25;;;;;;;22.77;6.50;;;16.80;99.60;;;;;;4992823;28;20030;-71
2021/09/01 02:07:51;;;;;;;27.90;7.45;;;16.70;99.50;;;;;;4993236;28;20030;-71
2021/09/01 02:10:18;;;;;;;20.67;6.60;;;16.80;99.50;;;;;;4993216;28;20029;-69
2021/09/01 02:12:43;;;;;;;20.38;6.20;;;16.80;99.40;;;;;;4993279;28;20042;-70
2021/09/01 02:15:10;;;;;;;22.42;6.22;;;16.80;99.40;;;;;;4993331;28;20100;-69
2021/09/01 02:17:36;;;;;;;21.35;6.68;;;16.80;99.40;;;;;;4993677;28;20033;-69
2021/09/01 02:20:03;;;;;;;25.38;6.45;;;16.80;99.40;;;;;;4992914;28;20062;-70
2021/09/01 02:22:29;;;;;;;20.60;6.15;;;16.80;99.30;;;;;;4993045;28;20058;-70
2021/09/01 02:24:54;;;;;;;18.48;5.68;;;16.80;99.40;;;;;;4993152;28;20065;-70
2021/09/01 02:27:20;;;;;;;20.80;5.85;;;16.80;99.30;;;;;;4992972;28;20030;-70
2021/09/01 02:29:46;;;;;;;23.63;6.10;;;16.80;99.20;;;;;;4993256;28;20030;-71
2021/09/01 02:32:11;;;;;;;19.42;5.72;;;16.80;99.30;;;;;;4992992;28;20470;-70
2021/09/01 02:34:37;;;;;;;21.25;5.75;;;16.70;99.30;;;;;;4992936;28;20035;-70
2021/09/01 02:37:03;;;;;;;17.75;5.93;;;16.80;99.30;;;;;;4992846;28;20062;-71
2021/09/01 02:39:28;;;;;;;15.13;5.80;;;16.80;99.10;;;;;;4992709;28;20026;-70
2021/09/01 02:41:54;;;;;;;25.35;6.40;;;16.80;99.10;;;;;;4993230;28;20034;-68
2021/09/01 02:44:20;;;;;;;15.45;4.95;;;16.80;99.20;;;;;;4992703;28;20088;-70
2021/09/01 02:46:46;;;;;;;21.38;6.07;;;16.90;99.20;;;;;;4992702;28;20049;-69
2021/09/01 02:49:12;;;;;;;16.98;5.07;;;16.90;99.20;;;;;;4992803;28;20042;-70
2021/09/01 02:51:38;;;;;;;16.60;5.38;;;16.80;99.20;;;;;;4992615;28;20631;-70
2021/09/01 02:54:03;;;;;;;13.73;5.00;;;16.70;99.30;;;;;;4992286;28;20034;-71
2021/09/01 02:56:30;;;;;;;19.95;5.40;;;16.70;99.30;;;;;;4992813;28;20255;-71
2021/09/01 02:58:55;;;;;;;26.50;6.20;;;16.80;99.20;;;;;;4992184;28;20045;-71
2021/09/01 03:01:21;;;;;;;26.58;6.35;;;16.90;99.10;;;;;;4992174;28;20030;-70
2021/09/01 03:03:47;;;;;;;22.80;5.25;;;16.90;99.10;;;;;;4992291;28;20087;-70
2021/09/01 03:06:12;;;;;;;18.88;6.07;;;17.00;98.90;;;;;;4992093;28;20034;-71
2021/09/01 03:08:38;;;;;;;19.70;5.20;;;16.90;99.00;;;;;;4992628;28;20030;-70
2021/09/01 03:11:04;;;;;;;23.85;5.55;;;16.90;99.00;;;;;;4992175;28;20041;-71
2021/09/01 03:13:29;;;;;;;23.73;6.05;;;16.90;99.00;;;;;;4992068;28;20066;-70
2021/09/01 03:15:55;;;;;;;18.63;5.20;;;16.90;99.00;;;;;;4992169;28;20030;-71
2021/09/01 03:18:20;;;;;;;16.42;5.57;;;17.00;98.90;;;;;;4992011;28;20117;-71
2021/09/01 03:20:46;;;;;;;20.33;6.35;;;17.00;98.80;;;;;;4992231;28;20058;-71
2021/09/01 03:23:12;;;;;;;17.48;5.10;;;17.10;98.70;;;;;;4991973;28;20411;-70
2021/09/01 03:25:37;;;;;;;18.60;5.00;;;17.00;98.70;;;;;;4991854;28;20438;-72
2021/09/01 03:28:03;;;;;;;18.38;4.95;;;16.90;98.80;;;;;;4991937;28;20052;-70
2021/09/01 03:30:29;;;;;;;20.98;5.05;;;16.80;98.90;;;;;;4991346;28;20113;-70
2021/09/01 03:32:56;;;;;;;15.15;5.35;;;16.80;99.00;;;;;;4991975;28;20026;-70
2021/09/01 03:35:22;;;;;;;11.38;4.50;;;16.70;99.00;;;;;;4991896;28;20077;-70
2021/09/01 03:37:47;;;;;;;26.92;6.30;;;16.70;99.10;;;;;;4991494;28;20586;-70
2021/09/01 03:40:14;;;;;;;19.27;5.75;;;16.70;99.00;;;;;;4990643;28;20035;-70
2021/09/01 03:42:42;;;;;;;27.80;6.28;;;16.70;99.00;;;;;;4991538;28;20026;-69
2021/09/01 03:45:09;;;;;;;15.20;4.65;;;16.80;98.90;;;;;;4991745;28;20451;-69
2021/09/01 03:47:34;;;;;;;22.88;5.53;;;16.90;98.80;;;;;;4991912;28;20109;-70
2021/09/01 03:50:02;;;;;;;22.63;5.65;;;16.90;98.70;;;;;;4991619;28;20765;-69
2021/09/01 03:52:28;;;;;;;16.13;5.35;;;16.80;98.80;;;;;;4991454;28;20467;-70
2021/09/01 03:54:53;;;;;;;16.67;5.43;;;16.80;98.90;;;;;;4991537;28;20053;-70
2021/09/01 03:57:19;;;;;;;17.42;4.85;;;16.90;98.80;;;;;;4991671;28;20519;-69
2021/09/01 03:59:44;;;;;;;25.48;6.25;;;16.80;98.80;;;;;;4991958;28;20483;-70
2021/09/01 04:02:10;;;;;;;17.65;5.20;;;16.80;98.80;;;;;;4991456;28;20380;-71
2021/09/01 04:04:36;;;;;;;21.40;5.60;;;16.90;98.70;;;;;;4991447;28;20041;-71
2021/09/01 04:07:03;;;;;;;24.05;5.80;;;16.80;98.80;;;;;;4991121;28;20033;-70
2021/09/01 04:09:28;;;;;;;13.65;4.78;;;16.80;98.90;;;;;;4991439;28;20102;-70
2021/09/01 04:11:54;;;;;;;20.58;5.30;;;16.90;98.90;;;;;;4991643;28;20581;-70
2021/09/01 04:14:20;;;;;;;16.30;5.38;;;16.80;98.90;;;;;;4991484;28;20034;-70
2021/09/01 04:16:45;;;;;;;15.75;5.25;;;16.80;98.90;;;;;;4990542;28;20101;-71
2021/09/01 04:19:11;;;;;;;23.63;5.20;;;16.90;98.90;;;;;;4991156;28;20049;-71
2021/09/01 04:21:36;;;;;;;21.13;5.60;;;16.90;98.90;;;;;;4991115;28;20060;-71
2021/09/01 04:24:02;;;;;;;17.20;5.57;;;16.90;99.00;;;;;;4991248;28;20066;-70
2021/09/01 04:26:28;;;;;;;33.92;6.35;;;16.90;99.00;;;;;;4991924;28;20038;-70
2021/09/01 04:28:54;;;;;;;15.15;5.32;;;16.90;99.00;;;;;;4990090;28;20045;-71
2021/09/01 04:31:19;;;;;;;11.90;5.03;;;16.90;99.10;;;;;;4991227;28;20046;-70
2021/09/01 04:33:45;;;;;;;20.45;5.63;;;16.80;99.20;;;;;;4991310;28;20037;-71
2021/09/01 04:36:10;;;;;;;22.00;6.55;;;16.80;99.10;;;;;;4991113;28;20066;-71
2021/09/01 04:38:36;;;;;;;16.52;5.43;;;16.90;99.10;;;;;;4991632;28;20038;-71
2021/09/01 04:41:02;;;;;;;19.50;5.85;;;16.90;99.20;;;;;;4991019;28;20041;-71
2021/09/01 04:43:27;;;;;;;19.75;5.93;;;16.70;99.20;;;;;;4992351;28;20030;-71
2021/09/01 04:45:53;;;;;;;25.50;7.30;;;16.80;99.30;;;;;;4994917;28;20522;-71
2021/09/01 04:48:18;;;;;;;17.92;5.80;;;16.70;99.40;;;;;;4993623;28;20026;-71
2021/09/01 04:50:44;;;;;;;24.77;6.18;;;16.80;99.40;;;;;;4995016;28;20030;-72
2021/09/01 04:53:09;;;;;;;20.50;5.10;;;16.80;99.30;;;;;;4994590;28;20340;-71
2021/09/01 04:55:35;;;;;;;16.13;6.15;;;16.80;99.40;;;;;;4994599;28;20030;-72
2021/09/01 04:58:01;;;;;;;18.23;5.38;;;16.80;99.40;;;;;;4994707;28;20039;-72
2021/09/01 05:00:27;;;;;;;14.23;5.75;;;16.80;99.30;;;;;;4993794;28;20058;-71
2021/09/01 05:02:52;;;;;;;24.83;6.07;;;16.90;99.40;;;;;;4995045;28;20023;-71
2021/09/01 05:05:18;;;;;;;22.73;6.68;;;16.90;99.30;;;;;;4994584;28;20061;-71
2021/09/01 05:07:44;;;;;;;22.58;5.70;;;16.90;99.30;;;;;;4994353;28;20031;-72
2021/09/01 05:10:10;;;;;;;18.02;5.47;;;16.90;99.30;;;;;;4994285;28;20037;-70
2021/09/01 05:12:35;;;;;;;22.02;5.18;;;16.90;99.20;;;;;;4994314;28;20463;-70
2021/09/01 05:15:01;;;;;;;21.60;5.88;;;16.90;99.20;;;;;;4993655;28;20039;-70
2021/09/01 05:17:27;;;;;;;18.48;5.35;;;16.90;99.20;;;;;;4994754;28;20055;-71
2021/09/01 05:19:52;;;;;;;25.38;5.25;;;16.80;99.20;;;;;;4994167;28;20038;-70
2021/09/01 05:22:21;;;;;;;14.60;5.07;;;16.80;99.30;;;;;;4994011;28;20042;-70
2021/09/01 05:24:59;;;;;;;;;;;16.80;99.30;;;;;;4994659;28;20034;-70
2021/09/01 05:27:27;;;;;;;16.23;5.28;;;16.80;99.30;;;;;;4993996;28;19945;-71
2021/09/01 05:29:52;;;;;;;11.25;4.72;;;16.80;99.40;;;;;;4994324;28;20030;-74
2021/09/01 05:32:23;;;;;;;16.52;5.22;;;16.80;99.30;;;;;;4993873;28;20372;-71
2021/09/01 05:34:51;;;;;;;17.90;5.38;;;16.90;99.30;;;;;;4993731;28;20118;-70
2021/09/01 05:37:17;;;;;;;18.05;4.88;;;16.80;99.20;;;;;;4993811;28;20117;-71
2021/09/01 05:39:51;;;;;;;19.20;5.18;;;16.80;99.40;;;;;;4994122;28;20038;-69
2021/09/01 05:42:19;;;;;;;21.40;5.95;;;16.80;99.50;;;;;;4993838;28;20049;-69
2021/09/01 05:44:45;;;;;;;19.92;5.60;;;16.90;99.30;;;;;;4994058;28;20033;-68
2021/09/01 05:47:12;;;;;;;17.10;4.72;;;16.90;99.40;;;;;;4993631;28;20117;-69
2021/09/01 05:49:39;;;;;;;17.08;6.00;;;17.00;99.40;;;;;;4993608;28;20404;-69
2021/09/01 05:52:06;;;;;;;22.15;6.25;;;17.10;99.20;;;;;;4989163;28;20031;-69
2021/09/01 05:54:33;;;;;;;25.48;5.70;;;17.10;99.10;;;;;;4973561;28;20086;-69
2021/09/01 05:57:12;;;;;;;26.38;6.53;;;17.10;99.10;;;;;;4973772;28;20114;-69
2021/09/01 06:00:01;;;;;;;19.40;4.93;;;17.10;99.10;;;;;;4974156;28;20046;-69
2021/09/01 06:02:38;;;;;;;26.75;6.22;;;17.00;99.20;;;;;;4973978;28;20050;-69
2021/09/01 06:05:06;;;;;;;16.05;5.78;;;17.00;99.20;;;;;;4973853;28;20122;-70
2021/09/01 06:07:32;;;;;;;18.85;6.22;;;17.00;99.20;;;;;;4973761;28;20384;-69
2021/09/01 06:10:00;;;;;;;17.65;5.30;;;17.00;99.30;;;;;;4972654;28;20039;-69
2021/09/01 06:12:27;;;;;;;22.50;6.78;;;17.10;99.30;;;;;;4973788;28;20039;-69
2021/09/01 06:14:53;;;;;;;16.98;5.32;;;17.20;99.10;;;;;;4974061;28;20102;-68
2021/09/01 06:17:19;;;;;;;16.17;5.65;;;17.20;98.90;;;;;;4973507;28;20126;-69
2021/09/01 06:19:45;;;;;;;18.67;6.10;;;17.20;99.00;;;;;;4973208;28;20110;-69
2021/09/01 06:22:10;;;;;;;17.92;6.20;;;17.20;99.00;;;;;;4973754;28;20031;-69
2021/09/01 06:24:36;;;;;;;18.25;5.55;;;17.20;98.80;;;;;;4973631;28;20422;-69
2021/09/01 06:27:03;;;;;;;26.48;6.50;;;17.30;98.90;;;;;;4973396;28;20397;-69
2021/09/01 06:29:29;;;;;;;24.42;6.50;;;17.30;98.80;;;;;;4973678;28;20030;-69
2021/09/01 06:31:55;;;;;;;22.25;6.13;;;17.30;98.70;;;;;;4973254;28;20109;-68
2021/09/01 06:34:20;;;;;;;25.10;6.45;;;17.40;98.70;;;;;;4973014;28;20093;-69
2021/09/01 06:36:46;;;;;;;20.02;5.85;;;17.30;98.70;;;;;;4973094;28;20030;-70
2021/09/01 06:39:12;;;;;;;18.13;6.78;;;17.30;98.70;;;;;;4972995;28;20521;-69
2021/09/01 06:41:38;;;;;;;19.40;6.97;;;17.30;98.90;;;;;;4973367;28;20031;-69
2021/09/01 06:44:04;;;;;;;18.00;5.63;;;17.30;98.70;;;;;;4972934;28;20039;-70
2021/09/01 06:46:30;;;;;;;19.95;6.18;;;17.40;98.70;;;;;;4973174;28;20049;-70
2021/09/01 06:48:55;;;;;;;25.83;6.38;;;17.40;98.80;;;;;;4973143;28;20554;-70
2021/09/01 06:51:21;;;;;;;18.95;5.35;;;17.30;98.80;;;;;;4973070;28;20023;-69
2021/09/01 06:53:51;;;;;;;19.02;5.68;;;17.40;99.10;;;;;;4973132;28;20085;-69
2021/09/01 06:56:18;;;;;;;17.58;5.35;;;17.50;98.80;;;;;;4972845;28;20321;-69
2021/09/01 06:58:43;;;;;;;21.90;6.03;;;17.50;98.60;;;;;;4972735;28;20031;-69
2021/09/01 07:01:09;;;;;;;24.73;6.45;;;17.60;98.50;;;;;;4987865;28;20053;-69
2021/09/01 07:03:35;;;;;;;28.30;6.03;;;17.50;98.60;;;;;;4972355;28;20031;-70
2021/09/01 07:06:00;;;;;;;20.02;6.43;;;17.50;98.60;;;;;;4971863;28;20082;-69
2021/09/01 07:08:27;;;;;;;21.42;6.90;;;17.50;98.40;;;;;;4973013;28;20054;-69
2021/09/01 07:10:53;;;;;;;19.90;6.38;;;17.60;98.40;;;;;;4972456;28;20117;-69
2021/09/01 07:13:19;;;;;;;20.65;6.68;;;17.60;98.30;;;;;;4972680;28;20045;-69
2021/09/01 07:15:45;;;;;;;20.17;6.35;;;17.70;98.20;;;;;;4972742;28;20027;-69
2021/09/01 07:18:11;;;;;;;23.88;6.88;;;17.70;98.30;;;;;;4972456;28;20022;-69
2021/09/01 07:20:38;;;;;;;20.80;6.30;;;17.80;98.20;;;;;;4972611;28;20069;-69
2021/09/01 07:23:04;;;;;;;23.23;6.65;;;17.90;98.10;;;;;;4972345;28;20034;-70
2021/09/01 07:25:32;;;;;;;20.33;7.15;;;17.90;97.90;;;;;;4972460;28;20034;-70
2021/09/01 07:27:58;;;;;;;15.50;6.57;;;18.00;97.80;;;;;;4972401;28;20045;-70
2021/09/01 07:30:24;;;;;;;25.35;7.93;;;18.00;97.80;;;;;;4971144;28;20130;-69
2021/09/01 07:32:49;;;;;;;28.73;8.18;;;18.10;97.50;;;;;;4972655;28;20154;-70
2021/09/01 07:35:15;;;;;;;21.10;7.38;;;18.00;97.40;;;;;;4972185;28;20398;-69
2021/09/01 07:37:45;;;;;;;19.10;6.15;;;18.00;97.30;;;;;;4972234;28;20047;-68
2021/09/01 07:40:12;;;;;;;23.50;7.50;;;18.00;97.30;;;;;;4972121;28;20456;-69
2021/09/01 07:42:37;;;;;;;26.27;5.85;;;18.00;97.40;;;;;;4971842;28;20049;-69
2021/09/01 07:45:04;;;;;;;30.42;6.88;;;18.00;97.40;;;;;;4972034;28;20318;-70
2021/09/01 07:47:29;;;;;;;20.52;6.47;;;17.90;97.20;;;;;;4971349;28;20027;-70
2021/09/01 07:49:55;;;;;;;15.90;5.63;;;17.80;97.20;;;;;;4987004;28;20049;-70
2021/09/01 07:52:20;;;;;;;23.88;6.32;;;17.80;97.20;;;;;;4970874;28;20034;-70
2021/09/01 07:54:46;;;;;;;27.00;6.65;;;17.80;97.10;;;;;;4972122;28;20034;-70
2021/09/01 07:57:12;;;;;;;20.77;7.18;;;17.90;97.10;;;;;;4972042;28;20027;-69
2021/09/01 07:59:37;;;;;;;27.08;8.52;;;18.00;96.90;;;;;;4972504;28;20113;-69
2021/09/01 08:02:03;;;;;;;20.00;7.38;;;18.00;97.00;;;;;;4972026;28;20027;-70
2021/09/01 08:04:28;;;;;;;19.90;6.82;;;18.00;96.80;;;;;;4972123;28;20031;-70
2021/09/01 08:06:54;;;;;;;25.67;7.15;;;18.00;96.70;;;;;;4970836;28;20122;-70
2021/09/01 08:09:20;;;;;;;18.73;7.18;;;18.00;96.90;;;;;;4971873;28;20038;-69
2021/09/01 08:11:46;;;;;;;24.60;7.20;;;17.90;96.90;;;;;;4972463;28;20027;-69
2021/09/01 08:14:12;;;;;;;14.98;6.63;;;18.10;96.90;;;;;;4972048;28;20057;-70
2021/09/01 08:16:37;;;;;;;23.00;7.85;;;18.20;96.70;;;;;;4971835;28;20065;-70
2021/09/01 08:19:03;;;;;;;19.65;7.63;;;18.20;96.50;;;;;;4975624;28;20034;-70
2021/09/01 08:21:28;;;;;;;19.90;7.00;;;18.20;96.20;;;;;;4974498;28;20061;-70
2021/09/01 08:23:54;;;;;;;19.52;6.38;;;18.40;96.00;;;;;;4975788;28;20027;-70
2021/09/01 08:26:20;;;;;;;16.00;6.18;;;18.70;95.90;;;;;;4975894;28;20122;-69
2021/09/01 08:28:45;;;;;;;22.67;7.53;;;18.70;95.60;;;;;;4975600;28;20138;-70
2021/09/01 08:31:13;;;;;;;15.88;6.05;;;19.10;95.20;;;;;;4975635;28;20050;-70
2021/09/01 08:33:39;;;;;;;;;;;19.60;94.70;;;;;;4976048;28;20092;-70
2021/09/01 08:36:05;;;;;;;22.20;7.00;;;19.80;94.30;;;;;;4974397;28;20000;-71
2021/09/01 08:38:30;;;;;;;22.75;6.45;;;19.50;94.10;;;;;;4975863;28;20027;-70
2021/09/01 08:40:56;;;;;;;16.95;5.88;;;19.60;94.00;;;;;;4975210;28;20424;-69
2021/09/01 08:43:22;;;;;;;24.88;7.28;;;19.80;94.40;;;;;;4975539;28;20460;-69
2021/09/01 08:45:48;;;;;;;19.92;6.32;;;19.70;93.80;;;;;;4975278;28;20039;-69
2021/09/01 08:48:15;;;;;;;21.45;6.63;;;19.80;94.10;;;;;;4975069;28;20392;-69
2021/09/01 08:50:41;;;;;;;17.00;6.23;;;19.90;93.70;;;;;;4975507;28;20126;-69
2021/09/01 08:53:07;;;;;;;14.38;5.03;;;19.90;93.50;;;;;;4975188;28;20035;-69
2021/09/01 08:55:33;;;;;;;17.75;5.85;;;20.60;93.60;;;;;;4974999;28;20033;-69
2021/09/01 08:57:59;;;;;;;19.45;5.40;;;21.50;92.30;;;;;;4974963;28;20051;-69
2021/09/01 09:00:25;;;;;;;14.75;5.65;;;22.20;91.30;;;;;;4974871;28;20031;-70
2021/09/01 09:02:59;;;;;;;16.95;5.53;;;22.60;91.10;;;;;;4975259;28;20089;-70
2021/09/01 09:05:33;;;;;;;17.48;5.50;;;22.40;90.40;;;;;;4974968;28;20039;-70
2021/09/01 09:07:59;;;;;;;21.88;5.95;;;21.70;90.80;;;;;;4975447;28;20114;-70
2021/09/01 09:10:37;;;;;;;20.60;6.88;;;21.90;91.20;;;;;;4974629;28;20122;-71
2021/09/01 09:13:05;;;;;;;14.63;5.55;;;22.20;90.50;;;;;;4975104;28;20033;-70
2021/09/01 09:15:31;;;;;;;14.45;5.55;;;21.80;91.00;;;;;;4974600;28;20034;-70
2021/09/01 09:17:57;;;;;;;20.27;6.32;;;21.50;90.50;;;;;;4974461;28;20034;-70
2021/09/01 09:20:34;;;;;;;22.17;6.18;;;21.20;91.10;;;;;;4974930;28;20126;-70
2021/09/01 09:23:08;;;;;;;18.50;7.07;;;21.20;91.30;;;;;;4974494;28;20464;-70
2021/09/01 09:25:35;;;;;;;17.23;5.97;;;21.10;91.40;;;;;;4974389;28;20031;-71
2021/09/01 09:28:06;;;;;;;15.93;6.05;;;21.10;91.50;;;;;;4974445;28;20038;-70
2021/09/01 09:30:34;;;;;;;23.30;6.50;;;21.30;91.50;;;;;;4973540;28;20596;-70
2021/09/01 09:33:02;;;;;;;23.38;7.53;;;20.90;91.60;;;;;;4974312;28;20031;-70
2021/09/01 09:35:51;;;;;;;24.25;6.47;;;20.80;92.00;;;;;;4974506;28;20033;-70
2021/09/01 09:38:26;;;;;;;14.23;5.40;;;20.90;92.00;;;;;;4974273;28;20030;-70
2021/09/01 09:40:52;;;;;;;18.38;6.95;;;20.80;91.90;;;;;;4974368;28;20042;-70
2021/09/01 09:43:23;;;;;;;20.30;6.13;;;20.70;92.20;;;;;;4973666;28;20079;-69
2021/09/01 09:45:59;;;;;;;20.58;6.93;;;20.50;92.50;;;;;;4974284;28;20041;-69
2021/09/01 09:48:30;;;;;;;19.50;6.93;;;20.50;92.30;;;;;;4973863;28;20392;-70
2021/09/01 09:50:56;;;;;;;19.88;6.47;;;20.10;92.30;;;;;;4974426;28;20019;-70
2021/09/01 09:53:38;;;;;;;18.13;6.13;;;20.10;92.60;;;;;;4974039;28;20051;-70
2021/09/01 09:56:15;;;;;;;16.60;6.45;;;20.10;92.90;;;;;;4972758;28;20068;-71
2021/09/01 09:58:46;;;;;;;24.63;7.63;;;20.30;92.90;;;;;;4974090;28;20131;-70
2021/09/01 10:01:14;;;;;;;28.35;8.15;;;20.20;92.50;;;;;;4973697;28;20809;-70
2021/09/01 10:03:40;;;;;;;16.67;7.55;;;20.10;92.70;;;;;;4973691;28;20057;-70
2021/09/01 10:06:08;;;;;;;21.70;7.47;;;19.90;92.90;;;;;;4973627;28;20034;-70
2021/09/01 10:08:35;;;;;;;;;;;19.80;93.00;;;;;;4974481;28;20086;-71
2021/09/01 10:11:03;;;;;;;19.25;7.55;;;20.00;92.90;;;;;;4973902;28;20218;-69
2021/09/01 10:13:30;;;;;;;20.27;9.63;;;19.90;92.90;;;;;;4972824;28;20054;-70
2021/09/01 10:16:01;;;;;;;26.45;8.60;;;19.90;92.90;;;;;;4973689;28;20122;-69
2021/09/01 10:18:28;;;;;;;30.33;8.65;;;20.00;92.80;;;;;;4988698;28;20030;-70
2021/09/01 10:20:56;;;;;;;27.73;9.20;;;20.20;93.10;;;;;;4973760;28;20047;-70
2021/09/01 10:23:36;;;;;;;23.83;7.57;;;20.40;92.50;;;;;;4973732;28;20046;-70
2021/09/01 10:26:22;;;;;;;16.83;6.78;;;20.70;92.50;;;;;;4973611;28;20047;-69
2021/09/01 10:28:49;;;;;;;22.00;7.13;;;21.10;92.20;;;;;;4973359;28;20047;-70
2021/09/01 10:31:18;;;;;;;20.73;7.07;;;21.00;91.40;;;;;;4973294;28;20022;-70
2021/09/01 10:33:47;;;;;;;18.50;7.10;;;21.20;91.60;;;;;;4973364;28;20111;-69
2021/09/01 10:36:25;;;;;;;25.67;8.95;;;21.30;91.30;;;;;;4972926;28;20106;-70
2021/09/01 10:38:50;;;;;;;;;;;21.50;91.20;;;;;;4973896;28;20081;-72
2021/09/01 10:41:33;;;;;;;18.38;7.22;;;22.00;91.10;;;;;;4972005;28;19918;-71
2021/09/01 10:44:11;;;;;;;28.50;7.38;;;21.80;90.50;;;;;;4973158;28;20035;-71
2021/09/01 10:46:48;;;;;;;;;;;22.10;90.80;;;;;;4973584;28;20097;-71
2021/09/01 10:49:14;;;;;;;16.63;7.70;;;22.20;90.60;;;;;;4973006;28;20004;-69
2021/09/01 10:51:48;;;;;;;15.18;6.47;;;21.60;90.60;;;;;;4972892;28;20106;-70
2021/09/01 10:54:29;;;;;;;21.10;6.68;;;21.60;90.60;;;;;;4972814;28;20070;-69
2021/09/01 10:56:56;;;;;;;17.67;7.13;;;21.80;90.80;;;;;;4973223;28;20018;-67
2021/09/01 10:59:27;;;;;;;20.98;6.57;;;21.80;91.00;;;;;;4971831;28;20340;-68
2021/09/01 11:02:11;;;;;;;15.77;6.50;;;22.20;91.00;;;;;;4972780;28;20042;-68
2021/09/01 11:04:48;;;;;;;16.30;5.68;;;22.70;90.10;;;;;;4972720;28;20045;-68
2021/09/01 11:07:20;;;;;;;16.23;5.97;;;22.40;88.20;;;;;;4971766;28;20142;-68
2021/09/01 11:10:10;;;;;;;13.90;5.68;;;22.60;90.00;;;;;;4972445;28;20049;-68
2021/09/01 11:12:41;;;;;;;19.38;5.93;;;23.00;88.60;;;;;;4972226;28;20038;-68
2021/09/01 11:15:06;;;;;;;16.27;6.35;;;23.50;87.50;;;;;;4972540;28;20031;-69
2021/09/01 11:17:32;;;;;;;13.65;5.07;;;23.70;86.70;;;;;;4972912;28;20031;-67
2021/09/01 11:20:00;;;;;;;16.30;5.68;;;23.40;86.10;;;;;;4972193;28;20042;-68
2021/09/01 11:22:37;;;;;;;17.10;5.30;;;23.30;86.50;;;;;;4972637;28;20317;-67
2021/09/01 11:25:10;;;;;;;13.80;5.90;;;23.00;86.40;;;;;;4972289;28;20038;-67
2021/09/01 11:27:44;;;;;;;17.77;5.60;;;22.90;87.30;;;;;;4972197;28;20030;-66
2021/09/01 11:30:12;;;;;;;19.73;6.05;;;22.90;87.20;;;;;;4972363;28;20095;-66
2021/09/01 11:32:40;;;;;;;12.95;5.20;;;22.90;87.90;;;;;;4972371;28;20113;-70
2021/09/01 11:35:09;;;;;;;;;;;22.90;86.80;;;;;;4972649;28;20098;-70
2021/09/01 11:37:36;;;;;;;12.38;4.63;;;22.50;87.30;;;;;;4972204;28;19914;-69
2021/09/01 11:40:02;;;;;;;13.43;4.75;;;22.70;87.90;;;;;;4972177;28;20045;-69
2021/09/01 11:42:28;;;;;;;15.20;5.07;;;22.70;87.70;;;;;;4971924;28;20337;-69
2021/09/01 11:44:59;;;;;;;10.52;4.45;;;22.80;87.10;;;;;;4972625;28;20521;-69
2021/09/01 11:47:25;;;;;;;12.82;5.07;;;22.60;87.40;;;;;;4972387;28;20046;-69
2021/09/01 11:49:53;;;;;;;13.60;5.50;;;22.60;87.10;;;;;;4971995;28;20569;-69
2021/09/01 11:52:33;;;;;;;16.02;5.30;;;22.90;87.30;;;;;;4971982;28;20093;-70
2021/09/01 11:54:59;;;;;;;14.10;5.47;;;23.10;87.20;;;;;;4972317;28;20061;-70
2021/09/01 11:57:27;;;;;;;16.42;5.13;;;23.20;86.70;;;;;;4972038;28;20045;-69
2021/09/01 11:59:54;;;;;;;12.20;4.35;;;22.90;86.40;;;;;;4972292;28;20029;-69
2021/09/01 12:02:24;;;;;;;18.15;5.35;;;22.90;86.40;;;;;;4971861;28;20042;-69
2021/09/01 12:04:50;;;;;;;20.63;6.15;;;23.00;86.50;;;;;;4970927;28;20509;-70
2021/09/01 12:07:30;;;;;;;13.57;4.72;;;23.10;86.30;;;;;;4970547;28;20615;-70
2021/09/01 12:10:05;;;;;;;12.88;5.15;;;23.10;86.40;;;;;;4971839;28;20094;-70
2021/09/01 12:12:36;;;;;;;24.15;6.00;;;23.00;86.10;;;;;;4971831;28;20512;-70
2021/09/01 12:15:12;;;;;;;13.93;4.28;;;22.80;86.10;;;;;;4971785;28;20047;-70
2021/09/01 12:17:40;;;;;;;18.25;6.10;;;22.70;86.40;;;;;;4972737;28;20064;-70
2021/09/01 12:20:07;;;;;;;9.90;4.35;;;22.80;86.70;;;;;;4971384;28;20047;-70
2021/09/01 12:22:40;;;;;;;14.80;4.87;;;22.90;86.40;;;;;;4971535;28;20119;-69
2021/09/01 12:25:09;;;;;;;13.43;4.30;;;22.90;86.40;;;;;;4971713;28;20420;-69
2021/09/01 12:27:36;;;;;;;18.17;4.63;;;22.60;86.10;;;;;;4971601;28;20154;-69
2021/09/01 12:30:07;;;;;;;12.43;5.10;;;22.90;86.40;;;;;;4971587;28;20023;-70
2021/09/01 12:32:32;;;;;;;11.85;4.47;;;22.90;86.40;;;;;;4972018;28;20097;-69
2021/09/01 12:35:02;;;;;;;14.43;4.60;;;22.80;85.80;;;;;;4971575;28;20027;-69
2021/09/01 12:37:35;;;;;;;11.40;4.70;;;22.80;86.60;;;;;;4971257;28;20085;-69
2021/09/01 12:40:08;;;;;;;12.43;5.35;;;22.90;86.60;;;;;;4971605;28;20062;-69